createdAt,value
2023-02-12T00:00:49.068Z,33.22
2023-02-12T00:03:53.358Z,29.48
2023-02-12T00:06:57.448Z,30.85
2023-02-12T00:10:01.570Z,31.63
2023-02-12T00:13:05.816Z,31.63
2023-02-12T00:16:13.610Z,31.27
2023-02-12T00:19:17.975Z,32.10
2023-02-12T00:22:22.073Z,31.50
2023-02-12T00:25:26.295Z,30.73
2023-02-12T00:28:30.469Z,30.83
2023-02-12T00:31:34.804Z,29.75
2023-02-12T00:34:39.077Z,30.40
2023-02-12T00:37:43.070Z,30.05
2023-02-12T00:40:46.941Z,29.45
2023-02-12T00:43:51.616Z,30.00
2023-02-12T00:46:55.420Z,29.50
2023-02-12T00:49:59.747Z,30.63
2023-02-12T00:53:03.810Z,30.02
2023-02-12T00:56:08.288Z,28.25
2023-02-12T00:59:12.371Z,29.70
2023-02-12T01:02:18.053Z,28.75
2023-02-12T01:05:22.213Z,27.25
2023-02-12T01:08:26.250Z,28.25
2023-02-12T01:11:30.303Z,28.23
2023-02-12T01:14:34.622Z,28.02
2023-02-12T01:17:39.284Z,27.70
2023-02-12T01:20:43.231Z,27.83
2023-02-12T01:23:48.187Z,27.20
2023-02-12T01:26:51.937Z,27.83
2023-02-12T01:29:56.586Z,27.90
2023-02-12T01:33:00.825Z,26.05
2023-02-12T01:36:05.210Z,26.35
2023-02-12T01:39:10.887Z,26.17
2023-02-12T01:42:18.670Z,25.35
2023-02-12T01:45:22.474Z,26.63
2023-02-12T01:48:29.055Z,25.95
2023-02-12T01:51:34.741Z,25.05
2023-02-12T01:54:40.178Z,25.55
2023-02-12T01:57:47.559Z,24.98
2023-02-12T02:00:52.682Z,26.23
2023-02-12T02:04:01.310Z,25.38
2023-02-12T02:07:08.147Z,25.50
2023-02-12T02:10:12.320Z,25.88
2023-02-12T02:13:35.018Z,25.92
2023-02-12T02:16:43.628Z,25.23
2023-02-12T02:20:16.577Z,23.75
2023-02-12T02:23:29.906Z,25.60
2023-02-12T02:27:03.151Z,24.05
2023-02-12T02:30:40.492Z,24.40
2023-02-12T02:33:58.293Z,23.40
2023-02-12T02:37:19.599Z,22.77
2023-02-12T02:40:27.344Z,22.88
2023-02-12T02:43:38.381Z,23.58
2023-02-12T02:46:48.658Z,23.15
2023-02-12T02:50:04.679Z,23.27
2023-02-12T02:53:13.453Z,24.35
2023-02-12T02:56:20.150Z,24.35
2023-02-12T02:59:32.913Z,26.00
2023-02-12T03:02:40.403Z,24.42
2023-02-12T03:05:49.216Z,23.98
2023-02-12T03:08:58.481Z,24.15
2023-02-12T03:12:29.549Z,26.02
2023-02-12T03:15:46.228Z,24.77
2023-02-12T03:18:56.046Z,24.05
2023-02-12T03:22:23.344Z,24.60
2023-02-12T03:25:57.029Z,24.63
2023-02-12T03:32:36.452Z,25.23
2023-02-12T03:36:05.388Z,26.55
2023-02-12T03:39:27.392Z,25.40
2023-02-12T03:42:50.115Z,25.10
2023-02-12T03:46:13.343Z,24.70
2023-02-12T03:49:23.801Z,24.75
2023-02-12T03:52:29.345Z,26.33
2023-02-12T03:55:39.952Z,24.63
2023-02-12T03:58:45.398Z,25.25
2023-02-12T04:01:52.902Z,25.45
2023-02-12T04:04:56.997Z,25.05
2023-02-12T04:08:04.318Z,25.83
2023-02-12T04:11:24.730Z,24.05
2023-02-12T04:14:53.564Z,24.75
2023-02-12T04:18:17.232Z,25.58
2023-02-12T04:21:46.414Z,24.65
2023-02-12T04:25:18.961Z,23.58
2023-02-12T04:28:41.878Z,23.73
2023-02-12T04:31:54.827Z,24.02
2023-02-12T04:35:05.067Z,23.63
2023-02-12T04:38:30.809Z,24.05
2023-02-12T04:41:35.115Z,23.25
2023-02-12T04:44:42.586Z,23.63
2023-02-12T04:47:47.439Z,24.42
2023-02-12T04:50:51.264Z,24.08
2023-02-12T04:53:55.220Z,22.90
2023-02-12T04:56:59.593Z,23.98
2023-02-12T05:00:08.868Z,22.45
2023-02-12T05:03:12.942Z,22.83
2023-02-12T05:06:17.191Z,23.55
2023-02-12T05:09:22.552Z,22.77
2023-02-12T05:12:26.797Z,23.23
2023-02-12T05:15:30.831Z,23.13
2023-02-12T05:18:35.733Z,23.70
2023-02-12T05:21:39.912Z,23.13
2023-02-12T05:24:44.227Z,23.25
2023-02-12T05:27:48.479Z,22.67
2023-02-12T05:30:52.711Z,22.48
2023-02-12T05:33:57.065Z,23.15
2023-02-12T05:37:01.672Z,20.92
2023-02-12T05:40:06.479Z,22.80
2023-02-12T05:43:11.112Z,22.38
2023-02-12T05:46:15.620Z,20.80
2023-02-12T05:49:19.532Z,22.45
2023-02-12T05:52:23.737Z,21.55
2023-02-12T05:55:27.908Z,21.73
2023-02-12T05:58:32.011Z,21.45
2023-02-12T06:01:38.578Z,21.25
2023-02-12T06:04:43.005Z,20.88
2023-02-12T06:07:47.474Z,21.23
2023-02-12T06:10:51.946Z,20.45
2023-02-12T06:13:56.096Z,21.40
2023-02-12T06:17:00.302Z,22.38
2023-02-12T06:20:04.706Z,21.35
2023-02-12T06:23:08.687Z,21.58
2023-02-12T06:26:12.945Z,20.48
2023-02-12T06:29:18.108Z,21.67
2023-02-12T06:32:22.640Z,21.92
2023-02-12T06:35:27.204Z,20.48
2023-02-12T06:38:31.373Z,22.17
2023-02-12T06:41:35.629Z,22.13
2023-02-12T06:44:39.595Z,22.55
2023-02-12T06:47:43.339Z,21.70
2023-02-12T06:50:47.648Z,22.45
2023-02-12T06:53:53.586Z,23.00
2023-02-12T06:56:57.494Z,23.58
2023-02-12T07:00:01.769Z,24.00
2023-02-12T07:03:05.813Z,23.75
2023-02-12T07:06:10.812Z,24.30
2023-02-12T07:09:14.918Z,24.20
2023-02-12T07:12:19.107Z,24.85
2023-02-12T07:15:23.319Z,23.55
2023-02-12T07:18:27.371Z,23.02
2023-02-12T07:21:32.238Z,23.13
2023-02-12T07:24:36.412Z,23.50
2023-02-12T07:27:40.833Z,23.80
2023-02-12T07:30:45.076Z,21.80
2023-02-12T07:33:54.717Z,21.30
2023-02-12T07:36:58.749Z,21.00
2023-02-12T07:40:03.023Z,20.85
2023-02-12T07:43:07.895Z,19.80
2023-02-12T07:46:34.724Z,21.05
2023-02-12T07:49:38.836Z,19.98
2023-02-12T07:52:43.223Z,19.15
2023-02-12T07:55:47.540Z,19.60
2023-02-12T07:58:53.018Z,19.00
2023-02-12T08:01:57.183Z,19.17
2023-02-12T08:05:01.252Z,18.42
2023-02-12T08:08:05.518Z,17.50
2023-02-12T08:11:11.542Z,17.80
2023-02-12T08:14:18.532Z,18.02
2023-02-12T08:17:22.676Z,17.40
2023-02-12T08:20:26.696Z,17.80
2023-02-12T08:23:32.042Z,17.98
2023-02-12T08:26:38.553Z,18.35
2023-02-12T08:29:42.758Z,17.83
2023-02-12T08:32:49.558Z,18.65
2023-02-12T08:36:05.317Z,18.58
2023-02-12T08:39:10.682Z,18.90
2023-02-12T08:42:14.905Z,18.40
2023-02-12T08:45:19.304Z,19.00
2023-02-12T08:48:23.839Z,20.00
2023-02-12T08:51:31.753Z,19.25
2023-02-12T08:54:35.989Z,19.88
2023-02-12T08:57:42.605Z,19.67
2023-02-12T09:00:46.519Z,20.05
2023-02-12T09:03:51.743Z,19.67
2023-02-12T09:06:56.472Z,20.30
2023-02-12T09:10:00.658Z,19.50
2023-02-12T09:13:04.434Z,19.05
2023-02-12T09:16:09.091Z,18.77
2023-02-12T09:19:14.619Z,19.25
2023-02-12T09:22:18.655Z,18.40
2023-02-12T09:25:23.033Z,18.50
2023-02-12T09:28:27.263Z,19.08
2023-02-12T09:31:32.671Z,18.55
2023-02-12T09:34:37.107Z,17.98
2023-02-12T09:37:41.726Z,17.15
2023-02-12T09:40:51.659Z,16.55
2023-02-12T09:44:21.607Z,16.48
2023-02-12T09:47:44.386Z,16.10
2023-02-12T09:50:57.885Z,16.35
2023-02-12T09:54:21.028Z,16.15
2023-02-12T09:57:36.118Z,15.98
2023-02-12T10:00:40.202Z,15.00
2023-02-12T10:03:47.370Z,15.77
2023-02-12T10:07:16.647Z,15.60
2023-02-12T10:10:39.221Z,15.75
2023-02-12T10:14:21.055Z,15.25
2023-02-12T10:17:33.324Z,15.90
2023-02-12T10:21:05.234Z,15.50
2023-02-12T10:24:44.243Z,15.27
2023-02-12T10:27:55.134Z,14.75
2023-02-12T10:31:03.457Z,15.52
2023-02-12T10:34:22.702Z,14.30
2023-02-12T10:37:37.480Z,15.07
2023-02-12T10:40:44.234Z,15.13
2023-02-12T10:43:48.447Z,15.05
2023-02-12T10:46:53.206Z,14.07
2023-02-12T10:50:02.879Z,13.85
2023-02-12T10:53:17.519Z,14.63
2023-02-12T10:56:24.636Z,15.15
2023-02-12T10:59:29.132Z,14.23
2023-02-12T11:02:34.330Z,14.00
2023-02-12T11:05:41.228Z,13.75
2023-02-12T11:08:46.109Z,12.65
2023-02-12T11:11:50.379Z,12.35
2023-02-12T11:14:57.903Z,12.60
2023-02-12T11:18:07.500Z,12.43
2023-02-12T11:21:12.923Z,13.27
2023-02-12T11:24:25.927Z,12.27
2023-02-12T11:27:31.158Z,12.63
2023-02-12T11:30:34.800Z,13.45
2023-02-12T11:33:39.313Z,12.40
2023-02-12T11:36:46.831Z,12.38
2023-02-12T11:39:51.439Z,12.52
2023-02-12T11:43:02.226Z,12.60
2023-02-12T11:46:08.695Z,11.90
2023-02-12T11:49:21.316Z,12.10
2023-02-12T11:52:32.605Z,12.40
2023-02-12T11:55:40.011Z,12.85
2023-02-12T11:58:44.927Z,12.55
2023-02-12T12:01:52.902Z,11.07
2023-02-12T12:05:11.998Z,11.05
2023-02-12T12:08:26.317Z,11.57
2023-02-12T12:11:40.320Z,11.05
2023-02-12T12:15:09.600Z,11.18
2023-02-12T12:18:51.295Z,13.18
2023-02-12T12:22:04.676Z,12.88
2023-02-12T12:25:25.186Z,13.15
2023-02-12T12:28:40.058Z,13.20
2023-02-12T12:31:47.080Z,12.88
2023-02-12T12:34:52.282Z,14.13
2023-02-12T12:38:07.593Z,14.35
2023-02-12T12:42:02.767Z,14.82
2023-02-12T12:45:20.850Z,14.70
2023-02-12T12:48:33.933Z,14.82
2023-02-12T12:51:47.071Z,15.00
2023-02-12T12:55:28.189Z,15.25
2023-02-12T12:59:03.469Z,16.13
2023-02-12T13:02:44.893Z,17.05
2023-02-12T13:06:16.002Z,17.48
2023-02-12T13:09:28.551Z,18.38
2023-02-12T13:12:54.279Z,18.10
2023-02-12T13:16:20.570Z,17.70
2023-02-12T13:19:36.863Z,18.85
2023-02-12T13:22:54.484Z,17.40
2023-02-12T13:26:11.296Z,18.10
2023-02-12T13:29:29.668Z,17.70
2023-02-12T13:32:40.643Z,18.88
2023-02-12T13:35:49.380Z,20.08
2023-02-12T13:38:59.932Z,20.35
2023-02-12T13:42:55.350Z,20.60
2023-02-12T13:46:02.054Z,19.65
2023-02-12T13:49:38.198Z,19.55
2023-02-12T13:53:06.888Z,20.80
2023-02-12T13:56:36.513Z,19.08
2023-02-12T13:59:43.363Z,19.67
2023-02-12T14:02:49.360Z,20.45
2023-02-12T14:06:13.154Z,20.00
2023-02-12T14:09:26.691Z,22.25
2023-02-12T14:12:42.994Z,20.50
2023-02-12T14:15:56.559Z,20.00
2023-02-12T14:19:38.436Z,20.88
2023-02-12T14:22:42.156Z,20.88
2023-02-12T14:25:55.390Z,20.95
2023-02-12T14:29:03.169Z,19.88
2023-02-12T14:32:45.786Z,20.63
2023-02-12T14:36:15.402Z,20.00
2023-02-12T14:39:19.490Z,19.67
2023-02-12T14:42:23.483Z,19.38
2023-02-12T14:45:35.954Z,20.83
2023-02-12T14:48:48.882Z,20.45
2023-02-12T14:52:06.578Z,20.65
2023-02-12T14:55:25.601Z,21.10
2023-02-12T14:58:32.522Z,20.77
2023-02-12T15:01:37.683Z,20.95
2023-02-12T15:04:45.285Z,20.30
2023-02-12T15:07:55.581Z,21.30
2023-02-12T15:11:04.415Z,19.80
2023-02-12T15:14:14.874Z,22.27
2023-02-12T15:17:27.710Z,20.70
2023-02-12T15:20:38.515Z,22.58
2023-02-12T15:23:44.384Z,21.08
2023-02-12T15:26:51.670Z,21.65
2023-02-12T15:29:55.615Z,22.23
2023-02-12T15:33:04.036Z,24.15
2023-02-12T15:36:10.659Z,23.27
2023-02-12T15:39:18.931Z,21.50
2023-02-12T15:42:42.516Z,21.77
2023-02-12T15:45:51.892Z,23.45
2023-02-12T15:48:56.133Z,23.45
2023-02-12T15:52:04.059Z,23.00
2023-02-12T15:55:16.356Z,21.70
2023-02-12T15:58:36.273Z,22.30
2023-02-12T16:01:40.741Z,23.85
2023-02-12T16:04:44.987Z,22.52
2023-02-12T16:07:49.579Z,23.38
2023-02-12T16:10:55.636Z,23.48
2023-02-12T16:14:08.467Z,24.27
2023-02-12T16:17:25.007Z,23.38
2023-02-12T16:20:29.446Z,24.50
2023-02-12T16:23:35.306Z,22.15
2023-02-12T16:26:39.504Z,23.33
2023-02-12T16:29:52.142Z,23.85
2023-02-12T16:32:56.545Z,22.58
2023-02-12T16:36:22.554Z,24.10
2023-02-12T16:39:54.057Z,24.58
2023-02-12T16:43:23.368Z,23.48
2023-02-12T16:46:46.416Z,23.52
2023-02-12T16:49:59.021Z,25.90
2023-02-12T16:53:22.404Z,26.23
2023-02-12T16:56:40.163Z,27.48
2023-02-12T16:59:45.190Z,26.95
2023-02-12T17:02:49.616Z,27.30
2023-02-12T17:05:53.658Z,29.00
2023-02-12T17:08:59.310Z,28.67
2023-02-12T17:12:03.514Z,30.40
2023-02-12T17:15:07.923Z,31.77
2023-02-12T17:18:12.340Z,30.02
2023-02-12T17:21:32.532Z,30.10
2023-02-12T17:24:36.725Z,30.52
2023-02-12T17:27:41.202Z,31.80
2023-02-12T17:30:45.545Z,30.15
2023-02-12T17:33:50.210Z,29.15
2023-02-12T17:36:54.282Z,28.50
2023-02-12T17:39:59.011Z,27.17
2023-02-12T17:43:04.754Z,27.08
2023-02-12T17:46:14.298Z,26.92
2023-02-12T17:49:18.821Z,26.08
2023-02-12T17:52:23.218Z,24.48
2023-02-12T17:55:27.335Z,24.42
2023-02-12T17:58:31.547Z,24.33
2023-02-12T18:01:36.086Z,24.23
2023-02-12T18:04:40.253Z,25.13
2023-02-12T18:07:44.563Z,25.73
2023-02-12T18:10:48.717Z,24.02
2023-02-12T18:13:56.679Z,23.25
2023-02-12T18:17:01.000Z,23.48
2023-02-12T18:20:06.037Z,23.58
2023-02-12T18:23:11.383Z,22.58
2023-02-12T18:26:17.307Z,23.48
2023-02-12T18:29:21.653Z,24.08
2023-02-12T18:32:25.711Z,23.23
2023-02-12T18:35:29.563Z,22.17
2023-02-12T18:38:35.643Z,23.38
2023-02-12T18:41:40.188Z,22.05
2023-02-12T18:44:44.192Z,22.45
2023-02-12T18:47:48.148Z,21.67
2023-02-12T18:50:55.162Z,22.08
2023-02-12T18:54:06.339Z,21.83
2023-02-12T18:57:10.996Z,23.08
2023-02-12T19:00:15.695Z,22.77
2023-02-12T19:03:19.523Z,22.50
2023-02-12T19:06:23.880Z,22.17
2023-02-12T19:09:28.491Z,22.25
2023-02-12T19:12:32.639Z,23.08
2023-02-12T19:15:40.666Z,22.77
2023-02-12T19:18:47.737Z,21.65
2023-02-12T19:21:51.736Z,21.38
2023-02-12T19:24:56.028Z,21.30
2023-02-12T19:28:00.405Z,20.73
2023-02-12T19:31:19.907Z,21.63
2023-02-12T19:34:24.779Z,21.83
2023-02-12T19:37:28.712Z,20.88
2023-02-12T19:40:32.977Z,20.92
2023-02-12T19:43:37.763Z,22.02
2023-02-12T19:46:42.860Z,20.27
2023-02-12T19:49:46.651Z,22.08
2023-02-12T19:52:50.949Z,21.98
2023-02-12T19:55:55.436Z,21.20
2023-02-12T19:58:59.412Z,22.38
2023-02-12T20:02:03.694Z,21.45
2023-02-12T20:05:08.174Z,20.80
2023-02-12T20:08:13.625Z,21.50
2023-02-12T20:11:20.416Z,21.05
2023-02-12T20:14:24.620Z,21.00
2023-02-12T20:17:28.859Z,20.70
2023-02-12T20:20:34.067Z,19.90
2023-02-12T20:23:38.036Z,19.60
2023-02-12T20:26:42.403Z,19.08
2023-02-12T20:29:46.892Z,18.15
2023-02-12T20:32:51.418Z,16.35
2023-02-12T20:35:56.874Z,17.40
2023-02-12T20:39:01.438Z,17.00
2023-02-12T20:42:05.638Z,15.98
2023-02-12T20:45:10.011Z,17.13
2023-02-12T20:48:14.369Z,16.38
2023-02-12T20:51:21.699Z,16.40
2023-02-12T20:54:26.052Z,16.60
2023-02-12T20:57:31.459Z,16.10
2023-02-12T21:00:35.279Z,15.75
2023-02-12T21:03:40.148Z,15.57
2023-02-12T21:06:45.562Z,15.93
2023-02-12T21:09:50.161Z,14.55
2023-02-12T21:12:54.346Z,15.27
2023-02-12T21:16:20.258Z,14.68
2023-02-12T21:19:25.767Z,14.32
2023-02-12T21:22:29.539Z,15.60
2023-02-12T21:25:33.436Z,14.38
2023-02-12T21:28:37.832Z,13.57
2023-02-12T21:31:45.636Z,13.57
2023-02-12T21:34:49.995Z,13.35
2023-02-12T21:37:53.811Z,12.77
2023-02-12T21:41:06.442Z,13.27
2023-02-12T21:44:15.752Z,13.05
2023-02-12T21:47:19.924Z,12.55
2023-02-12T21:50:24.080Z,13.20
2023-02-12T21:53:29.028Z,12.43
2023-02-12T21:56:33.345Z,12.80
2023-02-12T21:59:37.403Z,12.57
2023-02-12T22:02:41.591Z,12.68
2023-02-12T22:05:46.515Z,12.20
2023-02-12T22:08:54.174Z,12.80
2023-02-12T22:11:58.269Z,12.52
2023-02-12T22:15:02.520Z,12.63
2023-02-12T22:18:06.712Z,12.25
2023-02-12T22:21:13.578Z,12.10
2023-02-12T22:24:18.337Z,12.45
2023-02-12T22:27:22.556Z,11.82
2023-02-12T22:30:26.728Z,11.65
2023-02-12T22:33:30.980Z,13.07
2023-02-12T22:36:37.421Z,11.88
2023-02-12T22:39:41.436Z,12.50
2023-02-12T22:42:45.557Z,14.10
2023-02-12T22:45:49.589Z,12.68
2023-02-12T22:48:53.954Z,12.00
2023-02-12T22:51:58.206Z,13.25
2023-02-12T22:55:02.666Z,12.68
2023-02-12T22:58:07.247Z,12.52
2023-02-12T23:01:14.303Z,12.82
2023-02-12T23:04:18.728Z,12.65
2023-02-12T23:07:22.880Z,12.90
2023-02-12T23:10:27.196Z,12.85
2023-02-12T23:13:32.010Z,12.70
2023-02-12T23:16:35.903Z,12.15
2023-02-12T23:19:39.949Z,12.40
2023-02-12T23:22:43.786Z,12.60
2023-02-12T23:25:48.220Z,12.43
2023-02-12T23:28:52.440Z,12.57
2023-02-12T23:31:56.543Z,13.02
2023-02-12T23:35:00.440Z,11.82
2023-02-12T23:38:04.895Z,12.95
2023-02-12T23:41:08.818Z,12.75
2023-02-12T23:44:13.653Z,12.90
2023-02-12T23:47:17.903Z,13.32
2023-02-12T23:50:22.362Z,12.75
2023-02-12T23:53:26.430Z,13.10
2023-02-12T23:56:30.712Z,12.77
2023-02-12T23:59:34.881Z,12.73
